Aviation Digital Data Service (ADDS)

Output produced by METARs form (2059 UTC 29 May 2017)
found at http://www.aviationweather.gov/adds/metars/
 
METAR text: RODN 292056Z AUTO 05006KT 10SM BKN029 OVC035 22/22 A2986 RMK AO2 BKN V OVC SLP117 60000 T02170217 53002 $
Conditions at: RODN (KADENA (USAFB-NA, JP) observed 2056 UTC 29 May 2017
Temperature: 21.7°C (71°F)
Dewpoint: 21.7°C (71°F) [RH = 100%]
Pressure (altimeter): 29.86 inches Hg (1011.3 mb)
[Sea-level pressure: 1011.7 mb]
Winds: from the NE (50 degrees) at 7 MPH (6 knots; 3.1 m/s)
Visibility: 10 or more miles (16+ km)
Ceiling: 2900 feet AGL
Clouds: broken clouds at 2900 feet AGL
overcast cloud deck at 3500 feet AGL
Weather:
SOME DATA ABOVE MAY BE INACCURATE!!!
"$" is an indication the sensor requires maintenance

METAR text: ROTM 292058Z VRB05KT 9999 BKN020 22/21 A2987 RMK SLP102 STNPR29580 T02220211 52007
Conditions at: ROTM (FUTENMA(US-MCAS), JP) observed 2058 UTC 29 May 2017
Temperature: 22.2°C (72°F)
Dewpoint: 21.1°C (70°F) [RH = 93%]
Pressure (altimeter): 29.87 inches Hg (1011.6 mb)
[Sea-level pressure: 1010.2 mb]
Winds: variable direction winds at 6 MPH (5 knots; 2.6 m/s)
Visibility: 6 or more miles (10+ km)
Ceiling: 2000 feet AGL
Clouds: broken clouds at 2000 feet AGL
Weather: no significant weather observed at this time

METAR text: ROAH 292030Z 02006KT 360V090 9999 FEW010 BKN025 23/21 Q1010 RMK 2CU010 7CU025 A2984
Conditions at: ROAH (NAHA (CIV/JASDF), JP) observed 2030 UTC 29 May 2017
Temperature: 23.0°C (73°F)
Dewpoint: 21.0°C (70°F) [RH = 89%]
Pressure (altimeter): 29.82 inches Hg (1010.0 mb)
Winds: from the NNE (20 degrees) at 7 MPH (6 knots; 3.1 m/s)
Visibility: 6 or more miles (10+ km)
Ceiling: 2500 feet AGL
Clouds: few clouds at 1000 feet AGL
broken clouds at 2500 feet AGL
Weather: no significant weather observed at this time